createdAt,value
2019-04-03T00:01:15.875Z,46.03
2019-04-03T00:03:47.720Z,46.11
2019-04-03T00:06:19.722Z,46.02
2019-04-03T00:08:52.228Z,46.22
2019-04-03T00:11:24.643Z,46.31
2019-04-03T00:13:56.634Z,46.43
2019-04-03T00:16:28.784Z,46.77
2019-04-03T00:19:01.261Z,46.99
2019-04-03T00:21:33.698Z,47.18
2019-04-03T00:24:06.678Z,47.34
2019-04-03T00:26:38.964Z,47.77
2019-04-03T00:29:11.330Z,47.71
2019-04-03T00:31:44.792Z,47.66
2019-04-03T00:34:16.953Z,47.57
2019-04-03T00:36:50.067Z,47.75
2019-04-03T00:39:23.978Z,47.75
2019-04-03T00:41:57.004Z,48.02
2019-04-03T00:44:29.100Z,48.03
2019-04-03T00:47:01.588Z,47.95
2019-04-03T00:49:34.615Z,48.05
2019-04-03T00:52:06.437Z,48.05
2019-04-03T00:54:40.556Z,48.33
2019-04-03T00:57:13.009Z,48.37
2019-04-03T00:59:45.325Z,48.50
2019-04-03T01:02:18.697Z,48.89
2019-04-03T01:04:50.856Z,48.89
2019-04-03T01:07:24.713Z,48.77
2019-04-03T01:09:59.076Z,48.87
2019-04-03T01:12:31.264Z,49.11
2019-04-03T01:15:03.450Z,49.19
2019-04-03T01:17:35.305Z,49.36
2019-04-03T01:20:08.141Z,49.65
2019-04-03T01:22:40.262Z,49.75
2019-04-03T01:25:12.575Z,50.03
2019-04-03T01:27:44.445Z,50.06
2019-04-03T01:30:16.839Z,50.11
2019-04-03T01:32:48.977Z,50.10
2019-04-03T01:35:21.438Z,50.25
2019-04-03T01:37:53.565Z,50.35
2019-04-03T01:40:25.819Z,50.51
2019-04-03T01:42:58.058Z,50.57
2019-04-03T01:45:31.155Z,50.44
2019-04-03T01:48:03.337Z,50.58
2019-04-03T01:50:35.270Z,50.87
2019-04-03T01:53:07.296Z,50.86
2019-04-03T01:55:39.632Z,51.02
2019-04-03T01:58:12.162Z,51.05
2019-04-03T02:00:44.893Z,51.43
2019-04-03T02:03:16.783Z,51.29
2019-04-03T02:05:49.233Z,51.47
2019-04-03T02:08:21.461Z,51.64
2019-04-03T02:10:53.406Z,51.85
2019-04-03T02:13:25.753Z,51.85
2019-04-03T02:15:57.705Z,51.94
2019-04-03T02:18:31.267Z,52.07
2019-04-03T02:21:03.553Z,52.02
2019-04-03T02:23:35.721Z,52.31
2019-04-03T02:26:07.742Z,52.55
2019-04-03T02:28:40.923Z,52.54
2019-04-03T02:31:13.010Z,52.73
2019-04-03T02:33:46.124Z,52.86
2019-04-03T02:36:18.395Z,52.99
2019-04-03T02:38:51.553Z,53.19
2019-04-03T02:41:25.535Z,53.36
2019-04-03T02:43:57.949Z,53.46
2019-04-03T02:46:30.084Z,53.46
2019-04-03T02:49:02.231Z,53.56
2019-04-03T02:51:34.925Z,53.73
2019-04-03T02:54:12.957Z,53.81
2019-04-03T02:56:46.056Z,53.82
2019-04-03T02:59:18.910Z,54.07
2019-04-03T03:01:51.855Z,54.13
2019-04-03T03:04:24.396Z,54.24
2019-04-03T03:06:56.314Z,54.13
2019-04-03T03:09:29.892Z,54.24
2019-04-03T03:12:02.637Z,54.31
2019-04-03T03:14:39.309Z,54.45
2019-04-03T03:17:12.357Z,54.41
2019-04-03T03:19:45.417Z,55.00
2019-04-03T03:22:18.955Z,54.91
2019-04-03T03:24:53.015Z,55.00
2019-04-03T03:27:25.582Z,54.89
2019-04-03T03:29:59.837Z,55.18
2019-04-03T03:32:35.715Z,55.25
2019-04-03T03:35:14.480Z,55.24
2019-04-03T03:37:41.797Z,55.38
2019-04-03T03:40:16.585Z,55.37
2019-04-03T03:42:48.554Z,55.48
2019-04-03T03:45:22.629Z,55.50
2019-04-03T03:47:55.042Z,55.82
2019-04-03T03:50:27.327Z,55.82
2019-04-03T03:53:00.396Z,55.98
2019-04-03T03:55:33.221Z,56.11
2019-04-03T03:58:05.488Z,56.23
2019-04-03T04:00:38.181Z,56.33
2019-04-03T04:03:11.644Z,56.29
2019-04-03T04:05:44.154Z,56.47
2019-04-03T04:08:17.436Z,56.41
2019-04-03T04:10:50.689Z,56.42
2019-04-03T04:13:22.628Z,56.40
2019-04-03T04:15:56.397Z,56.60
2019-04-03T04:18:28.933Z,56.30
2019-04-03T04:21:01.085Z,56.33
2019-04-03T04:23:33.142Z,56.53
2019-04-03T04:26:05.721Z,56.60
2019-04-03T04:28:40.682Z,56.52
2019-04-03T04:31:13.390Z,56.32
2019-04-03T04:33:47.653Z,56.30
2019-04-03T04:36:20.056Z,56.24
2019-04-03T04:38:52.151Z,56.14
2019-04-03T04:41:24.250Z,56.16
2019-04-03T04:43:57.250Z,56.15
2019-04-03T04:46:30.617Z,55.94
2019-04-03T04:49:02.396Z,55.78
2019-04-03T04:51:36.162Z,55.78
2019-04-03T04:54:09.550Z,55.68
2019-04-03T04:56:42.303Z,56.11
2019-04-03T04:59:14.680Z,55.75
2019-04-03T05:01:48.959Z,55.56
2019-04-03T05:04:24.828Z,55.56
2019-04-03T05:06:59.701Z,55.55
2019-04-03T05:09:31.411Z,55.48
2019-04-03T05:12:04.735Z,55.58
2019-04-03T05:14:37.977Z,55.30
2019-04-03T05:17:09.984Z,55.14
2019-04-03T05:19:42.061Z,55.17
2019-04-03T05:22:14.353Z,55.06
2019-04-03T05:24:46.791Z,54.92
2019-04-03T05:27:19.134Z,54.84
2019-04-03T05:29:51.745Z,54.64
2019-04-03T05:32:23.950Z,54.73
2019-04-03T05:34:56.080Z,54.43
2019-04-03T05:37:28.855Z,54.38
2019-04-03T05:40:00.875Z,54.29
2019-04-03T05:42:33.267Z,54.36
2019-04-03T05:45:05.475Z,54.19
2019-04-03T05:47:39.503Z,54.15
2019-04-03T05:50:10.745Z,53.95
2019-04-03T05:52:42.533Z,53.96
2019-04-03T05:55:14.523Z,53.95
2019-04-03T05:57:46.290Z,53.92
2019-04-03T06:00:18.364Z,53.75
2019-04-03T06:02:52.558Z,53.58
2019-04-03T06:05:23.505Z,53.57
2019-04-03T06:07:55.159Z,53.35
2019-04-03T06:10:28.232Z,52.44
2019-04-03T06:13:00.676Z,51.83
2019-04-03T06:15:32.650Z,52.12
2019-04-03T06:18:04.443Z,52.10
2019-04-03T06:20:36.382Z,51.58
2019-04-03T06:23:08.209Z,50.83
2019-04-03T06:25:40.525Z,50.49
2019-04-03T06:28:13.645Z,50.86
2019-04-03T06:30:45.386Z,50.31
2019-04-03T06:33:17.094Z,50.32
2019-04-03T06:35:48.789Z,50.15
2019-04-03T06:38:22.470Z,50.54
2019-04-03T06:40:54.535Z,50.06
2019-04-03T06:43:29.255Z,49.94
2019-04-03T06:46:01.496Z,49.52
2019-04-03T06:48:35.960Z,50.06
2019-04-03T06:51:07.178Z,49.27
2019-04-03T06:53:39.178Z,49.17
2019-04-03T06:56:11.429Z,49.14
2019-04-03T06:58:44.779Z,48.71
2019-04-03T07:01:19.370Z,48.72
2019-04-03T07:03:50.594Z,48.64
2019-04-03T07:06:22.297Z,48.61
2019-04-03T07:08:54.458Z,48.59
2019-04-03T07:11:26.230Z,48.63
2019-04-03T07:13:58.400Z,49.06
2019-04-03T07:16:30.509Z,48.56
2019-04-03T07:19:02.827Z,48.76
2019-04-03T07:21:35.032Z,48.15
2019-04-03T07:24:07.931Z,48.14
2019-04-03T07:26:40.265Z,48.79
2019-04-03T07:29:15.598Z,48.45
2019-04-03T07:31:45.565Z,48.34
2019-04-03T07:34:17.422Z,48.36
2019-04-03T07:36:49.135Z,48.16
2019-04-03T07:39:20.841Z,47.79
2019-04-03T07:41:54.159Z,47.53
2019-04-03T07:44:25.961Z,47.61
2019-04-03T07:46:57.872Z,46.94
2019-04-03T07:49:30.026Z,46.87
2019-04-03T07:52:01.858Z,46.58
2019-04-03T07:54:33.591Z,46.49
2019-04-03T07:57:09.572Z,46.16
2019-04-03T07:59:41.217Z,45.69
2019-04-03T08:02:13.320Z,45.81
2019-04-03T08:04:46.393Z,45.39
2019-04-03T08:07:18.445Z,44.96
2019-04-03T08:09:52.274Z,44.87
2019-04-03T08:12:24.622Z,45.18
2019-04-03T08:14:57.851Z,44.26
2019-04-03T08:17:30.279Z,44.36
2019-04-03T08:20:03.459Z,43.59
2019-04-03T08:22:35.877Z,43.47
2019-04-03T08:25:11.147Z,43.36
2019-04-03T08:27:42.818Z,43.34
2019-04-03T08:30:15.744Z,42.69
2019-04-03T08:32:49.094Z,42.31
2019-04-03T08:35:24.076Z,42.17
2019-04-03T08:37:56.501Z,42.46
2019-04-03T08:40:28.869Z,42.61
2019-04-03T08:43:01.429Z,42.31
2019-04-03T08:45:37.800Z,41.70
2019-04-03T08:48:08.336Z,41.90
2019-04-03T08:50:42.349Z,41.10
2019-04-03T08:53:15.294Z,41.35
2019-04-03T08:55:47.610Z,41.03
2019-04-03T08:58:21.536Z,40.60
2019-04-03T09:00:53.784Z,40.67
2019-04-03T09:03:26.188Z,40.66
2019-04-03T09:05:58.149Z,40.27
2019-04-03T09:08:31.580Z,39.92
2019-04-03T09:11:05.074Z,39.44
2019-04-03T09:13:38.260Z,39.22
2019-04-03T09:16:11.020Z,38.98
2019-04-03T09:18:43.284Z,38.97
2019-04-03T09:21:16.856Z,38.86
2019-04-03T09:23:49.283Z,38.45
2019-04-03T09:26:21.575Z,38.03
2019-04-03T09:28:54.920Z,37.74
2019-04-03T09:31:27.261Z,37.94
2019-04-03T09:33:59.891Z,37.17
2019-04-03T09:36:34.933Z,37.00
2019-04-03T09:39:14.433Z,36.94
2019-04-03T09:41:50.879Z,36.73
2019-04-03T09:44:25.923Z,37.23
2019-04-03T09:46:58.470Z,36.58
2019-04-03T09:49:31.037Z,36.12
2019-04-03T09:52:03.158Z,35.58
2019-04-03T09:54:35.390Z,35.57
2019-04-03T09:57:08.728Z,35.47
2019-04-03T09:59:40.799Z,35.39
2019-04-03T10:02:13.067Z,35.20
2019-04-03T10:04:45.529Z,35.31
2019-04-03T10:07:17.749Z,35.37
2019-04-03T10:09:49.713Z,34.62
2019-04-03T10:12:22.697Z,34.48
2019-04-03T10:14:59.200Z,33.98
2019-04-03T10:17:31.354Z,33.74
2019-04-03T10:20:05.409Z,33.52
2019-04-03T10:22:41.738Z,32.57
2019-04-03T10:25:14.422Z,32.72
2019-04-03T10:27:46.704Z,32.72
2019-04-03T10:30:22.395Z,32.37
2019-04-03T10:32:56.953Z,31.90
2019-04-03T10:35:29.658Z,31.30
2019-04-03T10:38:02.006Z,30.32
2019-04-03T10:40:34.252Z,29.84
2019-04-03T10:43:06.779Z,29.53
2019-04-03T10:45:41.658Z,29.10
2019-04-03T10:48:15.508Z,28.87
2019-04-03T10:50:48.267Z,29.17
2019-04-03T10:53:20.767Z,28.83
2019-04-03T10:55:53.530Z,28.75
2019-04-03T10:58:25.827Z,28.78
2019-04-03T11:00:59.137Z,27.82
2019-04-03T11:03:33.968Z,27.82
2019-04-03T11:06:06.265Z,28.25
2019-04-03T11:08:39.524Z,27.77
2019-04-03T11:11:13.787Z,27.77
2019-04-03T11:13:47.278Z,27.50
2019-04-03T11:16:20.233Z,27.49
2019-04-03T11:18:59.830Z,27.27
2019-04-03T11:21:27.572Z,27.30
2019-04-03T11:24:01.332Z,26.77
2019-04-03T11:26:34.385Z,26.49
2019-04-03T11:29:08.703Z,26.53
2019-04-03T11:31:42.819Z,26.91
2019-04-03T11:34:17.949Z,26.27
2019-04-03T11:36:51.954Z,26.32
2019-04-03T11:39:24.327Z,26.19
2019-04-03T11:41:56.800Z,26.13
2019-04-03T11:44:29.731Z,26.41
2019-04-03T11:47:01.746Z,26.39
2019-04-03T11:49:35.886Z,26.35
2019-04-03T11:52:08.512Z,26.08
2019-04-03T11:54:40.896Z,25.73
2019-04-03T11:57:14.024Z,25.99
2019-04-03T11:59:47.493Z,26.52
2019-04-03T12:02:22.395Z,25.89
2019-04-03T12:04:55.435Z,25.58
2019-04-03T12:07:30.700Z,25.17
2019-04-03T12:10:07.368Z,24.82
2019-04-03T12:12:58.181Z,24.77
2019-04-03T12:15:41.242Z,24.66
2019-04-03T12:18:28.729Z,24.26
2019-04-03T12:21:06.213Z,23.87
2019-04-03T12:23:43.294Z,24.08
2019-04-03T12:26:21.946Z,24.03
2019-04-03T12:29:14.619Z,24.26
2019-04-03T12:31:57.058Z,23.58
2019-04-03T12:35:05.467Z,24.02
2019-04-03T12:38:20.121Z,23.32
2019-04-03T12:41:36.331Z,22.68
2019-04-03T12:44:16.109Z,23.05
2019-04-03T12:47:06.935Z,23.35
2019-04-03T12:49:44.423Z,23.57
2019-04-03T12:52:16.915Z,23.77
2019-04-03T12:54:54.295Z,24.23
2019-04-03T12:57:26.982Z,24.44
2019-04-03T12:59:59.225Z,24.38
2019-04-03T13:02:31.554Z,24.48
2019-04-03T13:05:07.249Z,24.19
2019-04-03T13:07:41.527Z,23.97
2019-04-03T13:10:16.018Z,24.06
2019-04-03T13:12:49.234Z,24.18
2019-04-03T13:15:21.991Z,24.10
2019-04-03T13:17:55.377Z,24.69
2019-04-03T13:20:27.979Z,24.75
2019-04-03T13:23:03.367Z,24.32
2019-04-03T13:25:40.094Z,24.24
2019-04-03T13:28:12.732Z,24.75
2019-04-03T13:30:45.089Z,24.90
2019-04-03T13:33:17.876Z,24.66
2019-04-03T13:35:51.789Z,24.64
2019-04-03T13:38:23.917Z,24.48
2019-04-03T13:40:56.451Z,24.45
2019-04-03T13:43:28.606Z,24.06
2019-04-03T13:46:05.092Z,24.24
2019-04-03T13:48:37.776Z,24.05
2019-04-03T13:51:12.367Z,24.46
2019-04-03T13:53:44.229Z,24.32
2019-04-03T13:56:18.271Z,24.03
2019-04-03T13:58:54.716Z,24.44
2019-04-03T14:01:27.892Z,24.24
2019-04-03T14:04:00.764Z,24.50
2019-04-03T14:06:36.211Z,24.19
2019-04-03T14:09:09.091Z,24.12
2019-04-03T14:11:45.876Z,23.59
2019-04-03T14:14:17.985Z,23.18
2019-04-03T14:16:50.723Z,23.11
2019-04-03T14:19:28.674Z,23.59
2019-04-03T14:22:04.038Z,23.23
2019-04-03T14:24:44.566Z,22.84
2019-04-03T14:27:22.849Z,22.79
2019-04-03T14:29:48.821Z,22.92
2019-04-03T14:32:22.562Z,23.61
2019-04-03T14:35:04.860Z,24.20
2019-04-03T14:37:28.794Z,24.33
2019-04-03T14:40:01.109Z,24.47
2019-04-03T14:42:33.278Z,24.66
2019-04-03T14:45:05.733Z,24.67
2019-04-03T14:47:38.598Z,24.74
2019-04-03T14:50:11.654Z,25.53
2019-04-03T14:52:47.778Z,25.36
2019-04-03T14:55:21.954Z,25.06
2019-04-03T14:57:55.466Z,25.14
2019-04-03T15:00:30.258Z,25.21
2019-04-03T15:03:00.579Z,25.13
2019-04-03T15:05:31.943Z,25.40
2019-04-03T15:08:06.050Z,25.39
2019-04-03T15:10:39.222Z,25.48
2019-04-03T15:13:13.680Z,25.35
2019-04-03T15:15:44.739Z,25.56
2019-04-03T15:18:16.583Z,25.94
2019-04-03T15:20:49.377Z,25.89
2019-04-03T15:23:21.983Z,25.76
2019-04-03T15:25:54.622Z,26.09
2019-04-03T15:28:29.712Z,26.39
2019-04-03T15:31:01.444Z,26.56
2019-04-03T15:33:34.092Z,26.63
2019-04-03T15:36:06.818Z,26.91
2019-04-03T15:38:39.501Z,26.79
2019-04-03T15:41:11.775Z,26.71
2019-04-03T15:43:46.650Z,26.86
2019-04-03T15:46:18.106Z,26.43
2019-04-03T15:48:51.015Z,26.47
2019-04-03T15:51:24.769Z,26.16
2019-04-03T15:53:59.266Z,26.37
2019-04-03T15:56:31.296Z,26.35
2019-04-03T15:59:04.122Z,26.67
2019-04-03T16:01:37.076Z,26.63
2019-04-03T16:04:11.349Z,27.21
2019-04-03T16:06:43.818Z,27.23
2019-04-03T16:09:18.298Z,27.01
2019-04-03T16:11:50.509Z,27.30
2019-04-03T16:14:22.832Z,27.87
2019-04-03T16:16:54.545Z,28.14
2019-04-03T16:19:27.026Z,28.20
2019-04-03T16:21:59.090Z,28.46
2019-04-03T16:24:30.784Z,28.73
2019-04-03T16:27:02.900Z,28.77
2019-04-03T16:29:34.786Z,28.50
2019-04-03T16:32:06.898Z,28.79
2019-04-03T16:34:41.699Z,29.09
2019-04-03T16:37:12.954Z,29.29
2019-04-03T16:39:45.275Z,29.49
2019-04-03T16:42:17.894Z,29.94
2019-04-03T16:44:50.542Z,30.01
2019-04-03T16:47:23.245Z,30.31
2019-04-03T16:49:55.971Z,30.70
2019-04-03T16:52:30.261Z,30.93
2019-04-03T16:55:03.260Z,31.05
2019-04-03T16:57:35.689Z,31.29
2019-04-03T17:00:10.072Z,31.46
2019-04-03T17:02:42.732Z,31.93
2019-04-03T17:05:15.218Z,32.46
2019-04-03T17:07:47.366Z,32.45
2019-04-03T17:10:19.134Z,32.58
2019-04-03T17:12:51.320Z,32.57
2019-04-03T17:15:23.609Z,32.97
2019-04-03T17:17:55.935Z,33.17
2019-04-03T17:20:28.580Z,33.36
2019-04-03T17:23:02.383Z,33.83
2019-04-03T17:25:45.853Z,33.93
2019-04-03T17:28:10.750Z,34.41
2019-04-03T17:30:43.254Z,34.63
2019-04-03T17:33:15.599Z,34.89
2019-04-03T17:35:48.444Z,35.10
2019-04-03T17:38:20.574Z,35.42
2019-04-03T17:40:52.536Z,35.73
2019-04-03T17:43:25.167Z,35.92
2019-04-03T17:45:57.466Z,36.24
2019-04-03T17:48:29.280Z,36.64
2019-04-03T17:51:02.588Z,36.59
2019-04-03T17:53:36.424Z,36.82
2019-04-03T17:56:08.537Z,37.25
2019-04-03T17:58:40.224Z,37.33
2019-04-03T18:01:11.925Z,37.56
2019-04-03T18:03:43.747Z,37.74
2019-04-03T18:06:18.347Z,37.78
2019-04-03T18:08:49.811Z,38.05
2019-04-03T18:11:22.084Z,38.02
2019-04-03T18:13:55.723Z,38.24
2019-04-03T18:16:29.797Z,38.42
2019-04-03T18:19:04.498Z,38.48
2019-04-03T18:21:36.143Z,38.55
2019-04-03T18:24:08.585Z,38.74
2019-04-03T18:26:40.850Z,38.85
2019-04-03T18:29:14.428Z,38.83
2019-04-03T18:31:47.138Z,39.06
2019-04-03T18:34:21.493Z,39.26
2019-04-03T18:36:54.367Z,39.14
2019-04-03T18:39:26.615Z,39.39
2019-04-03T18:41:58.823Z,39.78
2019-04-03T18:44:31.622Z,39.50
2019-04-03T18:47:04.944Z,39.83
2019-04-03T18:49:37.875Z,40.10
2019-04-03T18:52:10.546Z,40.50
2019-04-03T18:54:44.219Z,40.50
2019-04-03T18:57:17.110Z,40.56
2019-04-03T18:59:49.962Z,40.74
2019-04-03T19:02:22.539Z,40.84
2019-04-03T19:05:01.968Z,40.88
2019-04-03T19:07:28.754Z,41.09
2019-04-03T19:10:07.109Z,41.20
2019-04-03T19:12:36.272Z,41.80
2019-04-03T19:15:16.389Z,42.20
2019-04-03T19:18:00.151Z,42.53
2019-04-03T19:20:27.499Z,42.71
2019-04-03T19:23:02.834Z,42.74
2019-04-03T19:25:38.839Z,42.80
2019-04-03T19:28:13.180Z,42.84
2019-04-03T19:30:46.825Z,42.83
2019-04-03T19:33:21.615Z,43.09
2019-04-03T19:35:54.152Z,43.18
2019-04-03T19:38:27.436Z,43.66
2019-04-03T19:41:00.222Z,43.96
2019-04-03T19:43:33.705Z,43.81
2019-04-03T19:46:07.086Z,43.95
2019-04-03T19:48:39.755Z,44.20
2019-04-03T19:51:12.146Z,44.07
2019-04-03T19:53:58.333Z,44.26
2019-04-03T19:56:19.440Z,44.18
2019-04-03T19:58:53.178Z,44.29
2019-04-03T20:01:27.098Z,44.49
2019-04-03T20:04:02.591Z,44.49
2019-04-03T20:06:36.239Z,44.40
2019-04-03T20:09:10.525Z,44.62
2019-04-03T20:11:43.358Z,44.74
2019-04-03T20:14:15.921Z,44.96
2019-04-03T20:16:49.297Z,45.14
2019-04-03T20:19:22.844Z,45.22
2019-04-03T20:21:56.959Z,45.31
2019-04-03T20:24:31.219Z,45.55
2019-04-03T20:27:04.963Z,45.43
2019-04-03T20:29:37.706Z,45.46
2019-04-03T20:32:09.834Z,45.59
2019-04-03T20:34:44.432Z,45.88
2019-04-03T20:37:15.738Z,46.13
2019-04-03T20:39:47.946Z,46.37
2019-04-03T20:42:20.157Z,46.59
2019-04-03T20:44:52.954Z,46.47
2019-04-03T20:47:26.912Z,46.75
2019-04-03T20:50:00.699Z,46.85
2019-04-03T20:52:38.164Z,46.93
2019-04-03T20:55:10.912Z,47.06
2019-04-03T20:57:55.311Z,47.15
2019-04-03T21:00:20.825Z,47.27
2019-04-03T21:02:54.511Z,47.27
2019-04-03T21:05:28.893Z,47.72
2019-04-03T21:08:02.274Z,48.11
2019-04-03T21:10:35.799Z,48.40
2019-04-03T21:13:08.831Z,48.76
2019-04-03T21:15:41.620Z,48.66
2019-04-03T21:18:14.826Z,48.57
2019-04-03T21:20:47.809Z,48.79
2019-04-03T21:23:20.364Z,49.04
2019-04-03T21:25:54.830Z,48.82
2019-04-03T21:28:29.861Z,48.97
2019-04-03T21:31:02.346Z,49.21
2019-04-03T21:33:35.711Z,49.21
2019-04-03T21:36:10.088Z,49.33
2019-04-03T21:38:43.221Z,49.40
2019-04-03T21:41:20.749Z,49.47
2019-04-03T21:43:55.605Z,49.41
2019-04-03T21:46:29.673Z,49.69
2019-04-03T21:49:01.769Z,49.62
2019-04-03T21:51:33.957Z,49.63
2019-04-03T21:54:06.292Z,49.93
2019-04-03T21:56:40.886Z,49.97
2019-04-03T21:59:15.741Z,50.01
2019-04-03T22:01:49.286Z,50.05
2019-04-03T22:04:23.451Z,50.14
2019-04-03T22:06:57.867Z,50.17
2019-04-03T22:15:20.092Z,50.41
2019-04-03T22:17:52.609Z,50.59
2019-04-03T22:20:25.448Z,50.79
2019-04-03T22:22:57.289Z,50.79
2019-04-03T22:25:29.306Z,51.03
2019-04-03T22:28:01.386Z,51.41
2019-04-03T22:30:33.221Z,51.57
2019-04-03T22:33:06.194Z,52.00
2019-04-03T22:35:38.096Z,52.16
2019-04-03T22:38:09.783Z,52.04
2019-04-03T22:40:41.579Z,52.30
2019-04-03T22:43:15.314Z,52.28
2019-04-03T22:45:46.914Z,52.66
2019-04-03T22:48:18.576Z,52.78
2019-04-03T22:50:50.458Z,52.92
2019-04-03T22:53:22.199Z,52.75
2019-04-03T22:55:56.374Z,52.93
2019-04-03T22:58:28.775Z,52.93
2019-04-03T23:01:00.889Z,53.01
2019-04-03T23:03:33.867Z,53.30
2019-04-03T23:06:07.254Z,53.23
2019-04-03T23:08:39.034Z,53.35
2019-04-03T23:11:11.226Z,53.44
2019-04-03T23:13:43.120Z,53.47
2019-04-03T23:16:14.881Z,54.01
2019-04-03T23:18:48.723Z,53.82
2019-04-03T23:21:23.475Z,53.83
2019-04-03T23:23:54.057Z,53.92
2019-04-03T23:26:26.152Z,53.92
2019-04-03T23:28:58.237Z,53.97
2019-04-03T23:31:30.565Z,54.10
2019-04-03T23:34:02.380Z,54.37
2019-04-03T23:36:34.419Z,54.62
2019-04-03T23:39:08.771Z,54.77
2019-04-03T23:41:40.543Z,54.81
2019-04-03T23:44:13.648Z,54.78
2019-04-03T23:46:46.198Z,54.64
2019-04-03T23:49:20.176Z,54.60
2019-04-03T23:51:51.466Z,54.99
2019-04-03T23:54:23.419Z,54.95
2019-04-03T23:56:56.201Z,55.00
2019-04-03T23:59:28.567Z,55.49
